sensor_id;sensor_type;location;lat;lon;timestamp;temperature;humidity
13798;DHT22;6970;51.340;3.240;2023-07-29T00:01:13;17.60;99.90
13798;DHT22;6970;51.340;3.240;2023-07-29T00:03:44;17.50;99.90
13798;DHT22;6970;51.340;3.240;2023-07-29T00:06:14;17.50;99.90
13798;DHT22;6970;51.340;3.240;2023-07-29T00:08:42;17.60;99.90
13798;DHT22;6970;51.340;3.240;2023-07-29T00:11:12;17.50;99.90
13798;DHT22;6970;51.340;3.240;2023-07-29T00:13:42;17.60;99.90
13798;DHT22;6970;51.340;3.240;2023-07-29T00:16:11;17.50;99.90
13798;DHT22;6970;51.340;3.240;2023-07-29T00:18:38;17.50;99.90
13798;DHT22;6970;51.340;3.240;2023-07-29T00:21:05;17.50;99.90
13798;DHT22;6970;51.340;3.240;2023-07-29T00:23:34;17.50;99.90
13798;DHT22;6970;51.340;3.240;2023-07-29T00:26:03;17.60;99.90
13798;DHT22;6970;51.340;3.240;2023-07-29T00:28:31;17.50;99.90
13798;DHT22;6970;51.340;3.240;2023-07-29T00:31:02;17.50;99.90
13798;DHT22;6970;51.340;3.240;2023-07-29T00:33:32;17.50;99.90
13798;DHT22;6970;51.340;3.240;2023-07-29T00:36:03;17.50;99.90
13798;DHT22;6970;51.340;3.240;2023-07-29T00:38:31;17.50;99.90
13798;DHT22;6970;51.340;3.240;2023-07-29T00:41:05;17.50;99.90
13798;DHT22;6970;51.340;3.240;2023-07-29T00:43:32;17.50;99.90
13798;DHT22;6970;51.340;3.240;2023-07-29T00:46:01;17.40;99.90
13798;DHT22;6970;51.340;3.240;2023-07-29T00:48:32;17.40;99.90
13798;DHT22;6970;51.340;3.240;2023-07-29T00:51:02;17.40;99.90
13798;DHT22;6970;51.340;3.240;2023-07-29T00:53:29;17.40;99.90
13798;DHT22;6970;51.340;3.240;2023-07-29T00:55:59;17.40;99.90
13798;DHT22;6970;51.340;3.240;2023-07-29T00:58:27;17.30;99.90
13798;DHT22;6970;51.340;3.240;2023-07-29T01:00:57;17.30;99.90
13798;DHT22;6970;51.340;3.240;2023-07-29T01:03:27;17.30;99.90
13798;DHT22;6970;51.340;3.240;2023-07-29T01:06:21;17.30;99.90
13798;DHT22;6970;51.340;3.240;2023-07-29T01:09:20;17.30;99.90
13798;DHT22;6970;51.340;3.240;2023-07-29T01:12:24;17.30;99.90
13798;DHT22;6970;51.340;3.240;2023-07-29T01:18:10;17.30;99.90
13798;DHT22;6970;51.340;3.240;2023-07-29T01:20:41;17.30;99.90
13798;DHT22;6970;51.340;3.240;2023-07-29T01:23:10;17.30;99.90
13798;DHT22;6970;51.340;3.240;2023-07-29T01:25:40;17.30;99.90
13798;DHT22;6970;51.340;3.240;2023-07-29T01:28:13;17.30;99.90
13798;DHT22;6970;51.340;3.240;2023-07-29T01:30:43;17.30;99.90
13798;DHT22;6970;51.340;3.240;2023-07-29T01:33:22;17.20;99.90
13798;DHT22;6970;51.340;3.240;2023-07-29T01:36:18;17.20;99.90
13798;DHT22;6970;51.340;3.240;2023-07-29T01:38:48;17.20;99.90
13798;DHT22;6970;51.340;3.240;2023-07-29T01:41:17;17.20;99.90
13798;DHT22;6970;51.340;3.240;2023-07-29T01:43:45;17.20;99.90
13798;DHT22;6970;51.340;3.240;2023-07-29T01:46:16;17.20;99.90
13798;DHT22;6970;51.340;3.240;2023-07-29T01:48:45;17.20;99.90
13798;DHT22;6970;51.340;3.240;2023-07-29T01:51:15;17.20;99.90
13798;DHT22;6970;51.340;3.240;2023-07-29T01:53:45;17.20;99.90
13798;DHT22;6970;51.340;3.240;2023-07-29T01:56:12;17.20;99.90
13798;DHT22;6970;51.340;3.240;2023-07-29T01:58:39;17.20;99.90
13798;DHT22;6970;51.340;3.240;2023-07-29T02:01:07;17.20;99.90
13798;DHT22;6970;51.340;3.240;2023-07-29T02:03:35;17.20;99.90
13798;DHT22;6970;51.340;3.240;2023-07-29T02:06:04;17.20;99.90
13798;DHT22;6970;51.340;3.240;2023-07-29T02:08:31;17.20;99.90
13798;DHT22;6970;51.340;3.240;2023-07-29T02:10:59;17.10;99.90
13798;DHT22;6970;51.340;3.240;2023-07-29T02:13:28;17.10;99.90
13798;DHT22;6970;51.340;3.240;2023-07-29T02:15:55;17.10;99.90
13798;DHT22;6970;51.340;3.240;2023-07-29T02:18:25;17.10;99.90
13798;DHT22;6970;51.340;3.240;2023-07-29T02:20:52;17.10;99.90
13798;DHT22;6970;51.340;3.240;2023-07-29T02:23:22;17.00;99.90
13798;DHT22;6970;51.340;3.240;2023-07-29T02:25:50;17.10;99.90
13798;DHT22;6970;51.340;3.240;2023-07-29T02:28:17;17.00;99.90
13798;DHT22;6970;51.340;3.240;2023-07-29T02:30:44;17.00;99.90
13798;DHT22;6970;51.340;3.240;2023-07-29T02:33:15;17.00;99.90
13798;DHT22;6970;51.340;3.240;2023-07-29T02:35:45;17.00;99.90
13798;DHT22;6970;51.340;3.240;2023-07-29T02:38:14;17.00;99.90
13798;DHT22;6970;51.340;3.240;2023-07-29T02:40:42;17.00;99.90
13798;DHT22;6970;51.340;3.240;2023-07-29T02:43:11;17.00;99.90
13798;DHT22;6970;51.340;3.240;2023-07-29T02:45:38;17.00;99.90
13798;DHT22;6970;51.340;3.240;2023-07-29T02:48:11;17.00;99.90
13798;DHT22;6970;51.340;3.240;2023-07-29T02:50:38;17.00;99.90
13798;DHT22;6970;51.340;3.240;2023-07-29T02:53:07;17.00;99.90
13798;DHT22;6970;51.340;3.240;2023-07-29T02:55:39;17.10;99.90
13798;DHT22;6970;51.340;3.240;2023-07-29T02:58:10;17.00;99.90
13798;DHT22;6970;51.340;3.240;2023-07-29T03:00:38;17.00;99.90
13798;DHT22;6970;51.340;3.240;2023-07-29T03:03:09;17.00;99.90
13798;DHT22;6970;51.340;3.240;2023-07-29T03:05:39;17.00;99.90
13798;DHT22;6970;51.340;3.240;2023-07-29T03:08:08;17.00;99.90
13798;DHT22;6970;51.340;3.240;2023-07-29T03:10:38;17.00;99.90
13798;DHT22;6970;51.340;3.240;2023-07-29T03:13:10;17.00;99.90
13798;DHT22;6970;51.340;3.240;2023-07-29T03:15:41;17.00;99.90
13798;DHT22;6970;51.340;3.240;2023-07-29T03:18:09;17.00;99.90
13798;DHT22;6970;51.340;3.240;2023-07-29T03:20:39;17.00;99.90
13798;DHT22;6970;51.340;3.240;2023-07-29T03:23:06;17.10;99.90
13798;DHT22;6970;51.340;3.240;2023-07-29T03:25:33;17.00;99.90
13798;DHT22;6970;51.340;3.240;2023-07-29T03:28:03;17.00;99.90
13798;DHT22;6970;51.340;3.240;2023-07-29T03:30:34;17.00;99.90
13798;DHT22;6970;51.340;3.240;2023-07-29T03:33:04;17.00;99.90
13798;DHT22;6970;51.340;3.240;2023-07-29T03:35:32;17.00;99.90
13798;DHT22;6970;51.340;3.240;2023-07-29T03:38:01;17.00;99.90
13798;DHT22;6970;51.340;3.240;2023-07-29T03:40:28;17.00;99.90
13798;DHT22;6970;51.340;3.240;2023-07-29T03:42:55;17.00;99.90
13798;DHT22;6970;51.340;3.240;2023-07-29T03:45:22;17.00;99.90
13798;DHT22;6970;51.340;3.240;2023-07-29T03:47:49;17.10;99.90
13798;DHT22;6970;51.340;3.240;2023-07-29T03:50:16;17.10;99.90
13798;DHT22;6970;51.340;3.240;2023-07-29T03:52:44;17.10;99.90
13798;DHT22;6970;51.340;3.240;2023-07-29T03:55:15;17.10;99.90
13798;DHT22;6970;51.340;3.240;2023-07-29T03:57:44;17.10;99.90
13798;DHT22;6970;51.340;3.240;2023-07-29T04:00:14;17.10;99.90
13798;DHT22;6970;51.340;3.240;2023-07-29T04:02:42;17.10;99.90
13798;DHT22;6970;51.340;3.240;2023-07-29T04:05:09;17.20;99.90
13798;DHT22;6970;51.340;3.240;2023-07-29T04:07:37;17.20;99.90
13798;DHT22;6970;51.340;3.240;2023-07-29T04:10:10;17.20;99.90
13798;DHT22;6970;51.340;3.240;2023-07-29T04:12:40;17.20;99.90
13798;DHT22;6970;51.340;3.240;2023-07-29T04:15:13;17.20;99.90
13798;DHT22;6970;51.340;3.240;2023-07-29T04:17:47;17.30;99.90
13798;DHT22;6970;51.340;3.240;2023-07-29T04:20:15;17.30;99.90
13798;DHT22;6970;51.340;3.240;2023-07-29T04:22:49;17.30;99.90
13798;DHT22;6970;51.340;3.240;2023-07-29T04:25:19;17.30;99.90
13798;DHT22;6970;51.340;3.240;2023-07-29T04:27:46;17.40;99.90
13798;DHT22;6970;51.340;3.240;2023-07-29T04:30:13;17.40;99.90
13798;DHT22;6970;51.340;3.240;2023-07-29T04:32:42;17.40;99.90
13798;DHT22;6970;51.340;3.240;2023-07-29T04:35:14;17.40;99.90
13798;DHT22;6970;51.340;3.240;2023-07-29T04:37:41;17.40;99.90
13798;DHT22;6970;51.340;3.240;2023-07-29T04:40:10;17.50;99.90
13798;DHT22;6970;51.340;3.240;2023-07-29T04:42:39;17.40;99.90
13798;DHT22;6970;51.340;3.240;2023-07-29T04:45:07;17.40;99.90
13798;DHT22;6970;51.340;3.240;2023-07-29T04:47:38;17.40;99.90
13798;DHT22;6970;51.340;3.240;2023-07-29T04:50:05;17.40;99.90
13798;DHT22;6970;51.340;3.240;2023-07-29T04:52:34;17.40;99.90
13798;DHT22;6970;51.340;3.240;2023-07-29T04:55:04;17.50;99.90
13798;DHT22;6970;51.340;3.240;2023-07-29T04:57:33;17.50;99.90
13798;DHT22;6970;51.340;3.240;2023-07-29T05:00:03;17.50;99.90
13798;DHT22;6970;51.340;3.240;2023-07-29T05:02:32;17.60;99.90
13798;DHT22;6970;51.340;3.240;2023-07-29T05:05:01;17.60;99.90
13798;DHT22;6970;51.340;3.240;2023-07-29T05:07:30;17.60;99.90
13798;DHT22;6970;51.340;3.240;2023-07-29T05:10:00;17.70;99.90
13798;DHT22;6970;51.340;3.240;2023-07-29T05:12:30;17.80;99.90
13798;DHT22;6970;51.340;3.240;2023-07-29T05:15:02;17.80;99.90
13798;DHT22;6970;51.340;3.240;2023-07-29T05:17:29;17.90;99.90
13798;DHT22;6970;51.340;3.240;2023-07-29T05:20:03;17.90;99.90
13798;DHT22;6970;51.340;3.240;2023-07-29T05:22:30;17.90;99.90
13798;DHT22;6970;51.340;3.240;2023-07-29T05:24:58;18.00;99.90
13798;DHT22;6970;51.340;3.240;2023-07-29T05:27:31;18.00;99.90
13798;DHT22;6970;51.340;3.240;2023-07-29T05:29:58;18.00;99.90
13798;DHT22;6970;51.340;3.240;2023-07-29T05:32:29;18.00;99.90
13798;DHT22;6970;51.340;3.240;2023-07-29T05:34:57;18.00;99.90
13798;DHT22;6970;51.340;3.240;2023-07-29T05:37:26;18.00;99.90
13798;DHT22;6970;51.340;3.240;2023-07-29T05:39:53;18.00;99.90
13798;DHT22;6970;51.340;3.240;2023-07-29T05:42:27;18.00;99.90
13798;DHT22;6970;51.340;3.240;2023-07-29T05:45:00;18.10;99.90
13798;DHT22;6970;51.340;3.240;2023-07-29T05:47:27;18.10;99.90
13798;DHT22;6970;51.340;3.240;2023-07-29T05:49:54;18.20;99.90
13798;DHT22;6970;51.340;3.240;2023-07-29T05:52:22;18.30;99.90
13798;DHT22;6970;51.340;3.240;2023-07-29T05:54:52;18.30;99.90
13798;DHT22;6970;51.340;3.240;2023-07-29T05:57:19;18.30;99.90
13798;DHT22;6970;51.340;3.240;2023-07-29T05:59:46;18.30;99.90
13798;DHT22;6970;51.340;3.240;2023-07-29T06:02:17;18.30;99.90
13798;DHT22;6970;51.340;3.240;2023-07-29T06:04:45;18.30;99.90
13798;DHT22;6970;51.340;3.240;2023-07-29T06:07:13;18.30;99.90
13798;DHT22;6970;51.340;3.240;2023-07-29T06:09:40;18.40;99.90
13798;DHT22;6970;51.340;3.240;2023-07-29T06:12:17;18.40;99.90
13798;DHT22;6970;51.340;3.240;2023-07-29T06:14:47;18.50;99.90
13798;DHT22;6970;51.340;3.240;2023-07-29T06:17:16;18.50;99.90
13798;DHT22;6970;51.340;3.240;2023-07-29T06:19:46;18.50;99.90
13798;DHT22;6970;51.340;3.240;2023-07-29T06:22:17;18.50;99.90
13798;DHT22;6970;51.340;3.240;2023-07-29T06:24:45;18.60;99.90
13798;DHT22;6970;51.340;3.240;2023-07-29T06:27:12;18.60;99.90
13798;DHT22;6970;51.340;3.240;2023-07-29T06:29:39;18.60;99.90
13798;DHT22;6970;51.340;3.240;2023-07-29T06:32:06;18.70;99.90
13798;DHT22;6970;51.340;3.240;2023-07-29T06:34:34;18.70;99.90
13798;DHT22;6970;51.340;3.240;2023-07-29T06:37:04;18.60;99.90
13798;DHT22;6970;51.340;3.240;2023-07-29T06:39:32;18.60;99.90
13798;DHT22;6970;51.340;3.240;2023-07-29T06:42:02;18.60;99.90
13798;DHT22;6970;51.340;3.240;2023-07-29T06:44:32;18.70;99.90
13798;DHT22;6970;51.340;3.240;2023-07-29T06:46:59;18.70;99.90
13798;DHT22;6970;51.340;3.240;2023-07-29T06:49:30;18.80;99.90
13798;DHT22;6970;51.340;3.240;2023-07-29T06:52:00;18.80;99.90
13798;DHT22;6970;51.340;3.240;2023-07-29T06:54:30;18.90;99.90
13798;DHT22;6970;51.340;3.240;2023-07-29T06:57:00;19.00;99.90
13798;DHT22;6970;51.340;3.240;2023-07-29T06:59:30;19.10;99.90
13798;DHT22;6970;51.340;3.240;2023-07-29T07:02:16;19.20;99.90
13798;DHT22;6970;51.340;3.240;2023-07-29T07:04:43;19.40;99.90
13798;DHT22;6970;51.340;3.240;2023-07-29T07:07:13;19.40;99.90
13798;DHT22;6970;51.340;3.240;2023-07-29T07:09:43;19.50;99.90
13798;DHT22;6970;51.340;3.240;2023-07-29T07:12:12;19.70;99.90
13798;DHT22;6970;51.340;3.240;2023-07-29T07:14:42;19.70;99.90
13798;DHT22;6970;51.340;3.240;2023-07-29T07:17:12;19.90;99.90
13798;DHT22;6970;51.340;3.240;2023-07-29T07:19:42;20.00;99.90
13798;DHT22;6970;51.340;3.240;2023-07-29T07:22:12;20.10;99.90
13798;DHT22;6970;51.340;3.240;2023-07-29T07:24:40;20.20;99.90
13798;DHT22;6970;51.340;3.240;2023-07-29T07:27:11;20.30;99.90
13798;DHT22;6970;51.340;3.240;2023-07-29T07:29:39;20.40;99.90
13798;DHT22;6970;51.340;3.240;2023-07-29T07:32:06;20.50;99.90
13798;DHT22;6970;51.340;3.240;2023-07-29T07:34:37;20.60;99.90
13798;DHT22;6970;51.340;3.240;2023-07-29T07:37:07;20.70;99.90
13798;DHT22;6970;51.340;3.240;2023-07-29T07:39:34;20.90;99.90
13798;DHT22;6970;51.340;3.240;2023-07-29T07:42:04;21.00;99.90
13798;DHT22;6970;51.340;3.240;2023-07-29T07:44:34;21.10;99.90
13798;DHT22;6970;51.340;3.240;2023-07-29T07:47:03;21.00;99.90
13798;DHT22;6970;51.340;3.240;2023-07-29T07:49:32;21.00;99.90
13798;DHT22;6970;51.340;3.240;2023-07-29T07:52:02;21.00;99.90
13798;DHT22;6970;51.340;3.240;2023-07-29T07:54:30;20.80;99.90
13798;DHT22;6970;51.340;3.240;2023-07-29T07:57:00;20.60;99.90
13798;DHT22;6970;51.340;3.240;2023-07-29T07:59:27;20.50;99.90
13798;DHT22;6970;51.340;3.240;2023-07-29T08:01:56;20.50;99.90
13798;DHT22;6970;51.340;3.240;2023-07-29T08:04:25;20.60;99.90
13798;DHT22;6970;51.340;3.240;2023-07-29T08:06:52;20.80;99.90
13798;DHT22;6970;51.340;3.240;2023-07-29T08:09:20;20.90;99.90
13798;DHT22;6970;51.340;3.240;2023-07-29T08:11:48;21.00;99.90
13798;DHT22;6970;51.340;3.240;2023-07-29T08:14:17;21.00;99.90
13798;DHT22;6970;51.340;3.240;2023-07-29T08:16:46;20.90;99.90
13798;DHT22;6970;51.340;3.240;2023-07-29T08:19:15;20.90;99.90
13798;DHT22;6970;51.340;3.240;2023-07-29T08:21:42;20.70;99.90
13798;DHT22;6970;51.340;3.240;2023-07-29T08:24:13;20.70;99.90
13798;DHT22;6970;51.340;3.240;2023-07-29T08:26:46;20.50;99.90
13798;DHT22;6970;51.340;3.240;2023-07-29T08:29:16;20.40;99.90
13798;DHT22;6970;51.340;3.240;2023-07-29T08:31:43;20.40;99.90
13798;DHT22;6970;51.340;3.240;2023-07-29T08:34:11;20.30;99.90
13798;DHT22;6970;51.340;3.240;2023-07-29T08:36:41;20.30;99.90
13798;DHT22;6970;51.340;3.240;2023-07-29T08:39:10;20.30;99.90
13798;DHT22;6970;51.340;3.240;2023-07-29T08:41:52;20.20;99.90
13798;DHT22;6970;51.340;3.240;2023-07-29T08:44:26;20.00;99.90
13798;DHT22;6970;51.340;3.240;2023-07-29T08:46:59;19.80;99.90
13798;DHT22;6970;51.340;3.240;2023-07-29T08:49:27;19.70;99.90
13798;DHT22;6970;51.340;3.240;2023-07-29T08:51:57;19.70;99.90
13798;DHT22;6970;51.340;3.240;2023-07-29T08:54:38;19.60;99.90
13798;DHT22;6970;51.340;3.240;2023-07-29T08:57:11;19.40;99.90
13798;DHT22;6970;51.340;3.240;2023-07-29T08:59:40;19.40;99.90
13798;DHT22;6970;51.340;3.240;2023-07-29T09:02:11;19.30;99.90
13798;DHT22;6970;51.340;3.240;2023-07-29T09:04:42;19.20;99.90
13798;DHT22;6970;51.340;3.240;2023-07-29T09:07:10;19.20;99.90
13798;DHT22;6970;51.340;3.240;2023-07-29T09:09:37;19.00;99.90
13798;DHT22;6970;51.340;3.240;2023-07-29T09:12:08;18.90;99.90
13798;DHT22;6970;51.340;3.240;2023-07-29T09:14:35;18.80;99.90
13798;DHT22;6970;51.340;3.240;2023-07-29T09:17:07;18.80;99.90
13798;DHT22;6970;51.340;3.240;2023-07-29T09:19:38;18.80;99.90
13798;DHT22;6970;51.340;3.240;2023-07-29T09:22:21;18.80;99.90
13798;DHT22;6970;51.340;3.240;2023-07-29T09:24:51;18.80;99.90
13798;DHT22;6970;51.340;3.240;2023-07-29T09:27:29;18.80;99.90
13798;DHT22;6970;51.340;3.240;2023-07-29T09:29:58;18.80;99.90
13798;DHT22;6970;51.340;3.240;2023-07-29T09:32:26;18.90;99.90
13798;DHT22;6970;51.340;3.240;2023-07-29T09:34:53;19.00;99.90
13798;DHT22;6970;51.340;3.240;2023-07-29T09:37:22;19.10;99.90
13798;DHT22;6970;51.340;3.240;2023-07-29T09:39:50;19.30;99.90
13798;DHT22;6970;51.340;3.240;2023-07-29T09:42:24;19.40;99.90
13798;DHT22;6970;51.340;3.240;2023-07-29T09:44:51;19.60;99.90
13798;DHT22;6970;51.340;3.240;2023-07-29T09:47:27;19.80;99.90
13798;DHT22;6970;51.340;3.240;2023-07-29T09:49:57;20.00;99.90
13798;DHT22;6970;51.340;3.240;2023-07-29T09:52:28;20.10;99.90
13798;DHT22;6970;51.340;3.240;2023-07-29T09:54:59;20.20;99.90
13798;DHT22;6970;51.340;3.240;2023-07-29T09:57:30;20.30;99.90
13798;DHT22;6970;51.340;3.240;2023-07-29T09:59:57;20.30;99.90
13798;DHT22;6970;51.340;3.240;2023-07-29T10:02:24;20.30;99.90
13798;DHT22;6970;51.340;3.240;2023-07-29T10:04:56;20.30;99.90
13798;DHT22;6970;51.340;3.240;2023-07-29T10:07:26;20.30;99.90
13798;DHT22;6970;51.340;3.240;2023-07-29T10:09:54;20.30;99.90
13798;DHT22;6970;51.340;3.240;2023-07-29T10:12:30;20.40;99.90
13798;DHT22;6970;51.340;3.240;2023-07-29T10:15:04;20.30;99.90
13798;DHT22;6970;51.340;3.240;2023-07-29T10:17:36;20.30;99.90
13798;DHT22;6970;51.340;3.240;2023-07-29T10:20:05;20.30;99.90
13798;DHT22;6970;51.340;3.240;2023-07-29T10:22:37;20.40;99.90
13798;DHT22;6970;51.340;3.240;2023-07-29T10:25:18;20.60;99.90
13798;DHT22;6970;51.340;3.240;2023-07-29T10:28:03;20.60;99.90
13798;DHT22;6970;51.340;3.240;2023-07-29T10:30:31;20.80;99.90
13798;DHT22;6970;51.340;3.240;2023-07-29T10:33:02;21.20;99.90
13798;DHT22;6970;51.340;3.240;2023-07-29T10:35:30;21.50;99.90
13798;DHT22;6970;51.340;3.240;2023-07-29T10:38:02;21.70;99.90
13798;DHT22;6970;51.340;3.240;2023-07-29T10:40:53;22.00;99.90
13798;DHT22;6970;51.340;3.240;2023-07-29T10:46:15;22.50;99.90
13798;DHT22;6970;51.340;3.240;2023-07-29T10:48:57;22.90;99.90
13798;DHT22;6970;51.340;3.240;2023-07-29T10:51:36;23.40;99.90
13798;DHT22;6970;51.340;3.240;2023-07-29T10:54:10;23.60;99.90
13798;DHT22;6970;51.340;3.240;2023-07-29T10:56:48;23.80;99.90
13798;DHT22;6970;51.340;3.240;2023-07-29T11:02:02;24.00;99.90
13798;DHT22;6970;51.340;3.240;2023-07-29T11:04:30;24.30;99.90
13798;DHT22;6970;51.340;3.240;2023-07-29T11:12:44;25.00;99.90
13798;DHT22;6970;51.340;3.240;2023-07-29T11:18:01;25.60;99.90
13798;DHT22;6970;51.340;3.240;2023-07-29T11:20:33;25.70;99.90
13798;DHT22;6970;51.340;3.240;2023-07-29T11:23:04;25.50;99.90
13798;DHT22;6970;51.340;3.240;2023-07-29T11:25:34;25.30;99.90
13798;DHT22;6970;51.340;3.240;2023-07-29T11:28:03;25.20;99.90
13798;DHT22;6970;51.340;3.240;2023-07-29T11:30:33;25.40;99.90
13798;DHT22;6970;51.340;3.240;2023-07-29T11:33:04;25.70;99.90
13798;DHT22;6970;51.340;3.240;2023-07-29T11:35:33;26.00;99.90
13798;DHT22;6970;51.340;3.240;2023-07-29T11:38:03;26.30;99.90
13798;DHT22;6970;51.340;3.240;2023-07-29T11:40:30;26.80;99.90
13798;DHT22;6970;51.340;3.240;2023-07-29T11:42:58;27.10;99.90
13798;DHT22;6970;51.340;3.240;2023-07-29T11:45:27;27.40;99.90
13798;DHT22;6970;51.340;3.240;2023-07-29T11:48:12;27.60;99.90
13798;DHT22;6970;51.340;3.240;2023-07-29T11:50:41;27.80;99.90
13798;DHT22;6970;51.340;3.240;2023-07-29T11:53:09;27.60;99.90
13798;DHT22;6970;51.340;3.240;2023-07-29T11:55:37;27.50;99.90
13798;DHT22;6970;51.340;3.240;2023-07-29T11:58:05;27.60;99.90
13798;DHT22;6970;51.340;3.240;2023-07-29T12:00:32;27.80;99.90
13798;DHT22;6970;51.340;3.240;2023-07-29T12:03:00;27.80;99.50
13798;DHT22;6970;51.340;3.240;2023-07-29T12:05:32;28.00;99.30
13798;DHT22;6970;51.340;3.240;2023-07-29T12:08:00;27.80;99.30
13798;DHT22;6970;51.340;3.240;2023-07-29T12:10:29;27.70;99.60
13798;DHT22;6970;51.340;3.240;2023-07-29T12:12:59;27.60;99.70
13798;DHT22;6970;51.340;3.240;2023-07-29T12:15:31;27.40;99.90
13798;DHT22;6970;51.340;3.240;2023-07-29T12:18:01;27.20;99.90
13798;DHT22;6970;51.340;3.240;2023-07-29T12:20:43;26.90;99.90
13798;DHT22;6970;51.340;3.240;2023-07-29T12:23:12;26.60;99.90
13798;DHT22;6970;51.340;3.240;2023-07-29T12:25:40;26.40;99.90
13798;DHT22;6970;51.340;3.240;2023-07-29T12:28:10;26.10;99.90
13798;DHT22;6970;51.340;3.240;2023-07-29T12:30:43;26.00;99.90
13798;DHT22;6970;51.340;3.240;2023-07-29T12:33:34;25.90;99.90
13798;DHT22;6970;51.340;3.240;2023-07-29T12:36:04;25.80;99.90
13798;DHT22;6970;51.340;3.240;2023-07-29T12:38:31;25.80;99.90
13798;DHT22;6970;51.340;3.240;2023-07-29T12:40:58;25.70;99.90
13798;DHT22;6970;51.340;3.240;2023-07-29T12:43:25;25.70;99.90
13798;DHT22;6970;51.340;3.240;2023-07-29T12:45:57;25.80;99.90
13798;DHT22;6970;51.340;3.240;2023-07-29T12:48:24;25.90;99.90
13798;DHT22;6970;51.340;3.240;2023-07-29T12:50:52;26.00;99.90
13798;DHT22;6970;51.340;3.240;2023-07-29T12:53:21;26.10;99.90
13798;DHT22;6970;51.340;3.240;2023-07-29T12:55:51;26.10;99.90
13798;DHT22;6970;51.340;3.240;2023-07-29T12:58:21;26.00;99.90
13798;DHT22;6970;51.340;3.240;2023-07-29T13:00:51;25.80;99.90
13798;DHT22;6970;51.340;3.240;2023-07-29T13:03:20;25.50;99.90
13798;DHT22;6970;51.340;3.240;2023-07-29T13:05:48;25.30;99.90
13798;DHT22;6970;51.340;3.240;2023-07-29T13:08:17;25.30;99.90
13798;DHT22;6970;51.340;3.240;2023-07-29T13:10:44;25.50;99.90
13798;DHT22;6970;51.340;3.240;2023-07-29T13:13:12;25.70;99.90
13798;DHT22;6970;51.340;3.240;2023-07-29T13:15:40;26.00;99.90
13798;DHT22;6970;51.340;3.240;2023-07-29T13:18:07;26.10;99.90
13798;DHT22;6970;51.340;3.240;2023-07-29T13:20:37;26.30;99.90
13798;DHT22;6970;51.340;3.240;2023-07-29T13:23:04;26.30;99.90
13798;DHT22;6970;51.340;3.240;2023-07-29T13:25:33;26.20;99.90
13798;DHT22;6970;51.340;3.240;2023-07-29T13:28:05;26.10;99.90
13798;DHT22;6970;51.340;3.240;2023-07-29T13:30:33;25.90;99.90
13798;DHT22;6970;51.340;3.240;2023-07-29T13:33:03;25.60;99.90
13798;DHT22;6970;51.340;3.240;2023-07-29T13:35:30;25.40;99.90
13798;DHT22;6970;51.340;3.240;2023-07-29T13:38:00;25.20;99.90
13798;DHT22;6970;51.340;3.240;2023-07-29T13:40:29;25.20;99.90
13798;DHT22;6970;51.340;3.240;2023-07-29T13:42:59;25.20;99.90
13798;DHT22;6970;51.340;3.240;2023-07-29T13:45:29;25.20;99.90
13798;DHT22;6970;51.340;3.240;2023-07-29T13:47:57;25.20;99.90
13798;DHT22;6970;51.340;3.240;2023-07-29T13:50:28;25.20;99.90
13798;DHT22;6970;51.340;3.240;2023-07-29T13:52:58;25.30;99.90
13798;DHT22;6970;51.340;3.240;2023-07-29T13:55:25;25.50;99.90
13798;DHT22;6970;51.340;3.240;2023-07-29T13:57:55;25.60;99.90
13798;DHT22;6970;51.340;3.240;2023-07-29T14:00:24;25.70;99.90
13798;DHT22;6970;51.340;3.240;2023-07-29T14:02:53;25.70;99.90
13798;DHT22;6970;51.340;3.240;2023-07-29T14:05:24;25.90;99.90
13798;DHT22;6970;51.340;3.240;2023-07-29T14:07:52;26.00;99.90
13798;DHT22;6970;51.340;3.240;2023-07-29T14:10:19;26.10;99.90
13798;DHT22;6970;51.340;3.240;2023-07-29T14:12:46;26.10;99.90
13798;DHT22;6970;51.340;3.240;2023-07-29T14:15:13;26.00;99.90
13798;DHT22;6970;51.340;3.240;2023-07-29T14:17:47;26.10;99.90
13798;DHT22;6970;51.340;3.240;2023-07-29T14:20:17;26.10;99.90
13798;DHT22;6970;51.340;3.240;2023-07-29T14:22:51;26.20;99.70
13798;DHT22;6970;51.340;3.240;2023-07-29T14:25:18;26.20;99.30
13798;DHT22;6970;51.340;3.240;2023-07-29T14:27:45;26.10;98.60
13798;DHT22;6970;51.340;3.240;2023-07-29T14:30:12;26.00;98.30
13798;DHT22;6970;51.340;3.240;2023-07-29T14:32:40;25.90;98.30
13798;DHT22;6970;51.340;3.240;2023-07-29T14:35:08;25.80;98.40
13798;DHT22;6970;51.340;3.240;2023-07-29T14:37:35;25.80;98.60
13798;DHT22;6970;51.340;3.240;2023-07-29T14:40:05;25.80;98.70
13798;DHT22;6970;51.340;3.240;2023-07-29T14:42:36;25.80;98.40
13798;DHT22;6970;51.340;3.240;2023-07-29T14:45:06;25.80;98.50
13798;DHT22;6970;51.340;3.240;2023-07-29T14:47:34;25.80;98.40
13798;DHT22;6970;51.340;3.240;2023-07-29T14:50:04;25.80;98.50
13798;DHT22;6970;51.340;3.240;2023-07-29T14:52:34;25.70;98.50
13798;DHT22;6970;51.340;3.240;2023-07-29T14:55:05;25.70;98.40
13798;DHT22;6970;51.340;3.240;2023-07-29T14:57:33;25.60;98.20
13798;DHT22;6970;51.340;3.240;2023-07-29T15:00:03;25.50;98.20
13798;DHT22;6970;51.340;3.240;2023-07-29T15:02:36;25.40;98.30
13798;DHT22;6970;51.340;3.240;2023-07-29T15:05:07;25.40;98.30
13798;DHT22;6970;51.340;3.240;2023-07-29T15:07:37;25.40;98.10
13798;DHT22;6970;51.340;3.240;2023-07-29T15:10:05;25.30;98.10
13798;DHT22;6970;51.340;3.240;2023-07-29T15:12:33;25.20;98.20
13798;DHT22;6970;51.340;3.240;2023-07-29T15:15:02;25.20;98.30
13798;DHT22;6970;51.340;3.240;2023-07-29T15:17:31;25.10;98.40
13798;DHT22;6970;51.340;3.240;2023-07-29T15:19:59;25.10;98.30
13798;DHT22;6970;51.340;3.240;2023-07-29T15:22:30;25.00;98.50
13798;DHT22;6970;51.340;3.240;2023-07-29T15:25:00;25.00;98.80
13798;DHT22;6970;51.340;3.240;2023-07-29T15:27:28;25.00;99.00
13798;DHT22;6970;51.340;3.240;2023-07-29T15:29:56;25.00;99.00
13798;DHT22;6970;51.340;3.240;2023-07-29T15:32:23;25.00;99.00
13798;DHT22;6970;51.340;3.240;2023-07-29T15:34:51;24.90;99.10
13798;DHT22;6970;51.340;3.240;2023-07-29T15:37:21;24.90;99.00
13798;DHT22;6970;51.340;3.240;2023-07-29T15:39:49;24.90;98.50
13798;DHT22;6970;51.340;3.240;2023-07-29T15:42:17;24.80;98.30
13798;DHT22;6970;51.340;3.240;2023-07-29T15:44:46;24.80;98.30
13798;DHT22;6970;51.340;3.240;2023-07-29T15:47:16;24.80;98.20
13798;DHT22;6970;51.340;3.240;2023-07-29T15:49:48;24.70;98.40
13798;DHT22;6970;51.340;3.240;2023-07-29T15:52:19;24.70;98.90
13798;DHT22;6970;51.340;3.240;2023-07-29T15:54:53;24.70;99.00
13798;DHT22;6970;51.340;3.240;2023-07-29T15:57:23;24.60;98.90
13798;DHT22;6970;51.340;3.240;2023-07-29T15:59:53;24.60;98.70
13798;DHT22;6970;51.340;3.240;2023-07-29T16:02:20;24.60;98.30
13798;DHT22;6970;51.340;3.240;2023-07-29T16:04:46;24.60;97.50
13798;DHT22;6970;51.340;3.240;2023-07-29T16:07:17;24.50;97.20
13798;DHT22;6970;51.340;3.240;2023-07-29T16:09:45;24.40;97.00
13798;DHT22;6970;51.340;3.240;2023-07-29T16:12:12;24.40;96.70
13798;DHT22;6970;51.340;3.240;2023-07-29T16:14:39;24.30;96.90
13798;DHT22;6970;51.340;3.240;2023-07-29T16:17:06;24.20;97.20
13798;DHT22;6970;51.340;3.240;2023-07-29T16:19:51;24.20;96.90